Grigoriy Morozov — EMAD — position and weather

sailwx.info

Track history (hours):
 
Tides and Currents Weather Stations Pressure Air Temp Water Temp Dewpoint Dewpoint Depression Visibility Wind Speed Wind Dir Waves Ship Positions

Grigoriy Morozov

Last reported at 2017-Dec-29 11:17 UTC. Time now 2018-Jan-23 20:20 UTC.
Position N 43°50' E 023°13'.
Warning: this ship's position is 25 days out of date.

Length 171 m; draft 1.5 m.

Type: Ship. MMSI: 272039800.

Date/timePositionNaut miles runAvg speedWind from/ knotsBaromVisibWave heightAir tempDewpointWater temp
2017-Dec-29 11:17N 43°50' E 023°13'1 0.7
2017-Dec-29 10:15N 43°50' E 023°14'0 0.9
2017-Dec-29 10:00N 43°50' E 023°14'3 5.3
2017-Dec-29 09:30N 43°49' E 023°10'4 7.2
2017-Dec-29 09:00N 43°48' E 023°06'4 7.2
2017-Dec-29 08:30N 43°48' E 023°01'4 7.1
2017-Dec-29 08:00N 43°49' E 022°56'4 7.1
2017-Dec-29 07:30N 43°51' E 022°51'5 6.7
2017-Dec-29 06:49N 43°55' E 022°52'3 6.9
2017-Dec-29 06:23N 43°58' E 022°52'3 6.6
2017-Dec-29 05:59N 43°60' E 022°55'3 7.2
2017-Dec-29 05:30N 44°01' E 023°00'3 6.8
2017-Dec-29 05:00N 44°03' E 023°03'3 6.1
2017-Dec-29 04:30N 44°06' E 023°00'4 7.2
2017-Dec-29 04:00N 44°06' E 022°55'4 7.3
2017-Dec-29 03:30N 44°08' E 022°51'3 6.9
2017-Dec-29 03:00N 44°10' E 022°47'4 7.1
2017-Dec-29 02:30N 44°12' E 022°43'3 5.6
2017-Dec-29 02:00N 44°15' E 022°41'3 6.0
2017-Dec-29 01:30N 44°17' E 022°39'4 7.2
2017-Dec-29 01:00N 44°18' E 022°34'0 0.8
2017-Dec-29 00:30N 44°18' E 022°34'1 2.8
2017-Dec-29 00:00N 44°19' E 022°33'4 7.1
2017-Dec-28 23:30N 44°22' E 022°30'3 6.7
2017-Dec-28 23:00N 44°26' E 022°29'3 6.4
2017-Dec-28 22:30N 44°29' E 022°28'3 6.5
2017-Dec-28 22:00N 44°29' E 022°32'3 6.7
2017-Dec-28 21:30N 44°32' E 022°34'3 6.2
2017-Dec-28 21:00N 44°33' E 022°38'4 7.1
2017-Dec-28 20:31N 44°31' E 022°42'3 6.8
2017-Dec-28 20:00N 44°33' E 022°46'4 7.5
2017-Dec-28 19:30N 44°36' E 022°42'4 7.1
2017-Dec-28 19:00N 44°37' E 022°38'4 7.8
2017-Dec-28 18:30N 44°39' E 022°33'1 2.8
2017-Dec-28 18:00N 44°40' E 022°32'0 0.4
2017-Dec-28 17:30N 44°40' E 022°31'0 0.0
2017-Dec-28 17:00N 44°40' E 022°31'0 0.0
2017-Dec-28 16:30N 44°40' E 022°31'1 2.3
2017-Dec-28 16:00N 44°41' E 022°30'3 5.9
2017-Dec-28 15:30N 44°43' E 022°27'3 6.4
2017-Dec-28 15:00N 44°41' E 022°23'3 6.4
2017-Dec-28 14:27N 44°40' E 022°19'7 6.5
2017-Dec-28 13:25N 44°34' E 022°14'4 6.6
2017-Dec-28 12:50N 44°30' E 022°12'2 6.3
2017-Dec-28 12:31N 44°28' E 022°10'3 6.0
2017-Dec-28 12:01N 44°29' E 022°06'3 6.2
2017-Dec-28 11:30N 44°32' E 022°04'3 6.0
2017-Dec-28 11:00N 44°34' E 022°02'15 6.1
2017-Dec-28 08:34N 44°40' E 021°42'0 6.7
2017-Dec-28 08:30N 44°40' E 021°42'3 5.8
2017-Dec-28 08:01N 44°40' E 021°38'3 5.8
2017-Dec-28 07:31N 44°42' E 021°37'3 5.7
2017-Dec-28 07:00N 44°45' E 021°36'3 6.4
2017-Dec-28 06:30N 44°46' E 021°31'0 0.7
2017-Dec-28 05:49N 44°46' E 021°31'0 0.0
2017-Dec-28 05:04N 44°46' E 021°31'0 0.0
2017-Dec-28 04:49N 44°46' E 021°31'0 0.0
2017-Dec-28 04:28N 44°46' E 021°31'0 0.0
2017-Dec-28 03:52N 44°46' E 021°31'0 0.0
2017-Dec-28 03:19N 44°46' E 021°31'0 0.0
2017-Dec-28 02:58N 44°46' E 021°31'0 0.0
2017-Dec-28 02:25N 44°46' E 021°31'0 0.0
2017-Dec-28 01:58N 44°46' E 021°31'0 0.0
2017-Dec-28 01:25N 44°46' E 021°31'0 0.0
2017-Dec-28 00:55N 44°46' E 021°31'0 0.0
2017-Dec-28 00:28N 44°46' E 021°31'0 0.0
2017-Dec-27 23:58N 44°46' E 021°31'0 0.0
2017-Dec-27 23:30N 44°46' E 021°31'0 0.5
2017-Dec-27 22:57N 44°46' E 021°31'0 0.0
2017-Dec-27 22:30N 44°46' E 021°31'0 0.0
2017-Dec-27 22:01N 44°46' E 021°31'0 0.0
2017-Dec-27 21:31N 44°46' E 021°31'0 0.5
2017-Dec-27 21:01N 44°46' E 021°31'2 3.5
2017-Dec-27 20:30N 44°47' E 021°28'9 5.2
2017-Dec-27 18:49N 44°48' E 021°16'2 6.6
2017-Dec-27 18:31N 44°47' E 021°14'4 7.2
2017-Dec-27 18:01N 44°45' E 021°10'4 7.1
2017-Dec-27 17:31N 44°43' E 021°05'4 7.9
2017-Dec-27 17:01N 44°43' E 020°60'2 3.6
2017-Dec-27 16:31N 44°42' E 020°58'0 0.2
2017-Dec-27 16:01N 44°42' E 020°58'0 0.2
2017-Dec-27 15:31N 44°42' E 020°57'2 4.7
2017-Dec-27 15:00N 44°40' E 020°55'0 0.0
2017-Dec-27 14:28N 44°40' E 020°55'0 0.0
2017-Dec-27 13:59N 44°40' E 020°55'0 0.0
2017-Dec-27 13:31N 44°40' E 020°55'0 0.0
2017-Dec-27 13:01N 44°40' E 020°55'0 0.4
2017-Dec-27 12:31N 44°40' E 020°55'0 0.0
2017-Dec-27 12:01N 44°40' E 020°55'0 0.0
2017-Dec-27 00:24N 44°40' E 020°56'0 0.8
2017-Dec-27 00:00N 44°40' E 020°55'0 0.0
2017-Dec-26 23:30N 44°40' E 020°55'0 0.0
2017-Dec-26 23:00N 44°40' E 020°55'0 0.0
2017-Dec-26 22:30N 44°40' E 020°55'0 0.0
2017-Dec-26 22:00N 44°40' E 020°55'0 0.0
2017-Dec-26 21:30N 44°40' E 020°55'0 0.0
2017-Dec-26 21:00N 44°40' E 020°55'0 0.0
2017-Dec-26 20:30N 44°40' E 020°55'0 0.0
2017-Dec-26 20:00N 44°40' E 020°55'0 0.0
2017-Dec-26 19:30N 44°40' E 020°55'0 0.0
2017-Dec-26 19:00N 44°40' E 020°55'0 0.0
2017-Dec-26 18:30N 44°40' E 020°55'0 0.0
2017-Dec-26 18:00N 44°40' E 020°55'0 0.0
2017-Dec-26 17:30N 44°40' E 020°55'0 0.0
2017-Dec-26 17:00N 44°40' E 020°55'2 4.8
2017-Dec-26 16:31N 44°42' E 020°58'0 0.0
2017-Dec-26 16:00N 44°42' E 020°58'0 0.0
2017-Dec-26 15:30N 44°42' E 020°58'0 0.0
2017-Dec-26 15:01N 44°42' E 020°58'0 0.0
2017-Dec-26 14:30N 44°42' E 020°58'0 0.0
2017-Dec-26 14:00N 44°42' E 020°58'0 0.0
2017-Dec-26 13:30N 44°42' E 020°58'0 0.0
2017-Dec-26 13:01N 44°42' E 020°58'0 0.0
2017-Dec-26 12:26N 44°42' E 020°58'0 0.0
2017-Dec-26 12:00N 44°42' E 020°58'0 0.0
2017-Dec-26 11:30N 44°42' E 020°58'0 0.0
2017-Dec-26 11:00N 44°42' E 020°58'0 0.3
2017-Dec-26 10:30N 44°42' E 020°58'0 0.1
2017-Dec-26 08:55N 44°42' E 020°58'0 0.0
2017-Dec-25 23:37N 44°42' E 020°58'0 0.1
2017-Dec-25 23:30N 44°42' E 020°58'1 1.4
2017-Dec-25 23:00N 44°42' E 020°59'0 0.8
2017-Dec-25 22:30N 44°43' E 020°59'2 3.1
2017-Dec-25 21:59N 44°43' E 021°01'1 3.0
2017-Dec-25 21:31N 44°43' E 021°03'2 3.3
2017-Dec-25 21:00N 44°43' E 021°05'2 3.2
2017-Dec-25 20:27N 44°44' E 021°08'4 3.1
2017-Dec-25 19:15N 44°46' E 021°12'1 3.3
2017-Dec-25 19:00N 44°47' E 021°13'2 2.9
2017-Dec-25 18:27N 44°48' E 021°15'2 3.8
2017-Dec-25 17:56N 44°48' E 021°17'2 3.7
2017-Dec-25 17:16N 44°49' E 021°21'2 3.6
2017-Dec-25 16:41N 44°48' E 021°23'1 3.7
2017-Dec-25 16:29N 44°47' E 021°23'1 2.9
2017-Dec-25 16:00N 44°46' E 021°25'26 1.4
2017-Dec-24 21:25N 44°38' E 021°59'2 2.6
2017-Dec-24 20:41N 44°36' E 022°01'1 2.7
2017-Dec-24 20:29N 44°36' E 022°01'1 3.0
2017-Dec-24 20:00N 44°35' E 022°02'2 3.2
2017-Dec-24 19:30N 44°33' E 022°02'2 3.6
2017-Dec-24 19:00N 44°32' E 022°04'2 3.4
2017-Dec-24 18:30N 44°30' E 022°05'2 3.7
2017-Dec-24 18:00N 44°29' E 022°07'2 3.8
2017-Dec-24 17:31N 44°28' E 022°09'2 3.6
2017-Dec-24 17:00N 44°29' E 022°11'4 4.1
2017-Dec-24 16:04N 44°33' E 022°14'0 4.0
2017-Dec-24 15:59N 44°33' E 022°14'7 3.3
2017-Dec-24 13:45N 44°40' E 022°19'1 3.2
2017-Dec-24 13:31N 44°40' E 022°20'2 4.4
2017-Dec-24 13:00N 44°41' E 022°23'2 4.3
2017-Dec-24 12:31N 44°42' E 022°25'2 4.2
2017-Dec-24 12:00N 44°43' E 022°28'2 4.3
2017-Dec-24 11:30N 44°41' E 022°30'1 2.7
2017-Dec-24 11:00N 44°40' E 022°31'0 0.1
2017-Dec-24 10:30N 44°40' E 022°32'0 0.3
2017-Dec-24 10:01N 44°40' E 022°32'0 0.2
2017-Dec-24 09:31N 44°40' E 022°32'1 2.0
2017-Dec-24 09:01N 44°39' E 022°33'1 2.6
2017-Dec-24 08:30N 44°38' E 022°34'1 2.3
2017-Dec-24 08:01N 44°38' E 022°35'1 2.7
2017-Dec-24 07:31N 44°37' E 022°37'1 2.6
2017-Dec-24 07:01N 44°37' E 022°39'2 3.2
2017-Dec-24 06:31N 44°37' E 022°41'2 3.3
2017-Dec-24 06:01N 44°36' E 022°43'2 3.5
2017-Dec-24 05:30N 44°34' E 022°45'2 3.5
2017-Dec-24 05:00N 44°33' E 022°46'2 3.3
2017-Dec-24 04:31N 44°32' E 022°44'2 3.7
2017-Dec-24 04:01N 44°31' E 022°42'2 4.1
2017-Dec-24 03:31N 44°32' E 022°39'2 4.0
2017-Dec-24 03:01N 44°33' E 022°37'2 3.5
2017-Dec-24 02:31N 44°33' E 022°34'2 3.4
2017-Dec-24 02:01N 44°31' E 022°34'2 3.8
2017-Dec-24 01:31N 44°29' E 022°33'2 3.7
2017-Dec-24 01:01N 44°28' E 022°31'2 3.5
2017-Dec-24 00:31N 44°29' E 022°28'1 2.4
2017-Dec-24 00:01N 44°28' E 022°28'2 3.2
2017-Dec-23 23:30N 44°26' E 022°29'2 3.6
2017-Dec-23 23:01N 44°25' E 022°30'2 3.4
2017-Dec-23 22:30N 44°23' E 022°30'2 3.5
2017-Dec-23 22:01N 44°21' E 022°31'2 3.5
2017-Dec-23 21:31N 44°20' E 022°32'1 3.0
2017-Dec-23 21:01N 44°19' E 022°34'0 0.4
2017-Dec-23 20:30N 44°19' E 022°34'2 3.5
2017-Dec-23 20:01N 44°18' E 022°36'1 2.6
2017-Dec-23 19:31N 44°18' E 022°38'1 2.7
2017-Dec-23 19:01N 44°17' E 022°40'1 2.4
2017-Dec-23 18:31N 44°16' E 022°41'1 2.5
2017-Dec-23 18:01N 44°15' E 022°41'1 2.4
2017-Dec-23 17:31N 44°14' E 022°41'1 1.9
2017-Dec-23 17:00N 44°13' E 022°41'1 1.6
2017-Dec-23 16:31N 44°12' E 022°41'1 2.4
2017-Dec-23 16:00N 44°12' E 022°43'1 2.4
2017-Dec-23 15:31N 44°12' E 022°44'1 2.3
2017-Dec-23 15:01N 44°11' E 022°46'1 2.3
2017-Dec-23 14:30N 44°10' E 022°47'1 2.5
2017-Dec-23 14:01N 44°10' E 022°48'1 2.4
2017-Dec-23 13:31N 44°09' E 022°50'1 2.7
2017-Dec-23 13:01N 44°08' E 022°51'1 2.4
2017-Dec-23 12:31N 44°08' E 022°53'1 2.9
2017-Dec-23 12:00N 44°06' E 022°54'1 2.4
2017-Dec-23 11:30N 44°06' E 022°56'1 2.3
2017-Dec-23 11:01N 44°06' E 022°57'1 2.6
2017-Dec-23 10:30N 44°06' E 022°59'1 2.9
2017-Dec-23 10:00N 44°05' E 023°01'1 2.8
2017-Dec-23 09:30N 44°04' E 023°03'1 2.8
2017-Dec-23 09:01N 44°03' E 023°02'1 2.6
2017-Dec-23 08:31N 44°02' E 023°02'1 2.9
2017-Dec-23 08:01N 44°01' E 023°01'1 3.0
2017-Dec-23 07:31N 44°00' E 022°59'2 3.0
2017-Dec-23 07:00N 44°00' E 022°57'1 2.7
2017-Dec-23 06:31N 43°60' E 022°55'1 2.8
2017-Dec-23 06:01N 43°59' E 022°53'1 2.7
2017-Dec-23 05:27N 43°58' E 022°52'1 3.0
2017-Dec-23 05:00N 43°56' E 022°52'2 3.1
2017-Dec-23 04:31N 43°55' E 022°51'1 1.8
2017-Dec-23 04:00N 43°54' E 022°51'1 1.6
2017-Dec-23 03:31N 43°53' E 022°50'1 2.9
2017-Dec-23 03:00N 43°52' E 022°51'1 2.8
2017-Dec-23 02:30N 43°51' E 022°52'1 2.5
2017-Dec-23 02:00N 43°50' E 022°53'11 2.8
2017-Dec-22 22:15N 43°48' E 023°07'7 2.5
2017-Dec-22 19:39N 43°51' E 023°16'0 3.2
2017-Dec-22 19:30N 43°51' E 023°16'  
Track history (hours):
 
Tides and Currents Weather Stations Pressure Air Temp Water Temp Dewpoint Dewpoint Depression Visibility Wind Speed Wind Dir Waves Ship Positions

Grigoriy Morozov

Last reported at 2017-Dec-29 11:17 UTC. Time now 2018-Jan-23 20:20 UTC.
Position N 43°50' E 023°13'.
Warning: this ship's position is 25 days out of date.

Length 171 m; draft 1.5 m.

Type: Ship. MMSI: 272039800.

Date/timePositionNaut miles runAvg speedWind from/ knotsBaromVisibWave heightAir tempDewpointWater temp
2017-Dec-29 11:17N 43°50' E 023°13'1 0.7
2017-Dec-29 10:15N 43°50' E 023°14'0 0.9
2017-Dec-29 10:00N 43°50' E 023°14'3 5.3
2017-Dec-29 09:30N 43°49' E 023°10'4 7.2
2017-Dec-29 09:00N 43°48' E 023°06'4 7.2
2017-Dec-29 08:30N 43°48' E 023°01'4 7.1
2017-Dec-29 08:00N 43°49' E 022°56'4 7.1
2017-Dec-29 07:30N 43°51' E 022°51'5 6.7
2017-Dec-29 06:49N 43°55' E 022°52'3 6.9
2017-Dec-29 06:23N 43°58' E 022°52'3 6.6
2017-Dec-29 05:59N 43°60' E 022°55'3 7.2
2017-Dec-29 05:30N 44°01' E 023°00'3 6.8
2017-Dec-29 05:00N 44°03' E 023°03'3 6.1
2017-Dec-29 04:30N 44°06' E 023°00'4 7.2
2017-Dec-29 04:00N 44°06' E 022°55'4 7.3
2017-Dec-29 03:30N 44°08' E 022°51'3 6.9
2017-Dec-29 03:00N 44°10' E 022°47'4 7.1
2017-Dec-29 02:30N 44°12' E 022°43'3 5.6
2017-Dec-29 02:00N 44°15' E 022°41'3 6.0
2017-Dec-29 01:30N 44°17' E 022°39'4 7.2
2017-Dec-29 01:00N 44°18' E 022°34'0 0.8
2017-Dec-29 00:30N 44°18' E 022°34'1 2.8
2017-Dec-29 00:00N 44°19' E 022°33'4 7.1
2017-Dec-28 23:30N 44°22' E 022°30'3 6.7
2017-Dec-28 23:00N 44°26' E 022°29'3 6.4
2017-Dec-28 22:30N 44°29' E 022°28'3 6.5
2017-Dec-28 22:00N 44°29' E 022°32'3 6.7
2017-Dec-28 21:30N 44°32' E 022°34'3 6.2
2017-Dec-28 21:00N 44°33' E 022°38'4 7.1
2017-Dec-28 20:31N 44°31' E 022°42'3 6.8
2017-Dec-28 20:00N 44°33' E 022°46'4 7.5
2017-Dec-28 19:30N 44°36' E 022°42'4 7.1
2017-Dec-28 19:00N 44°37' E 022°38'4 7.8
2017-Dec-28 18:30N 44°39' E 022°33'1 2.8
2017-Dec-28 18:00N 44°40' E 022°32'0 0.4
2017-Dec-28 17:30N 44°40' E 022°31'0 0.0
2017-Dec-28 17:00N 44°40' E 022°31'0 0.0
2017-Dec-28 16:30N 44°40' E 022°31'1 2.3
2017-Dec-28 16:00N 44°41' E 022°30'3 5.9
2017-Dec-28 15:30N 44°43' E 022°27'3 6.4
2017-Dec-28 15:00N 44°41' E 022°23'3 6.4
2017-Dec-28 14:27N 44°40' E 022°19'7 6.5
2017-Dec-28 13:25N 44°34' E 022°14'4 6.6
2017-Dec-28 12:50N 44°30' E 022°12'2 6.3
2017-Dec-28 12:31N 44°28' E 022°10'3 6.0
2017-Dec-28 12:01N 44°29' E 022°06'3 6.2
2017-Dec-28 11:30N 44°32' E 022°04'3 6.0
2017-Dec-28 11:00N 44°34' E 022°02'15 6.1
2017-Dec-28 08:34N 44°40' E 021°42'0 6.7
2017-Dec-28 08:30N 44°40' E 021°42'3 5.8
2017-Dec-28 08:01N 44°40' E 021°38'3 5.8
2017-Dec-28 07:31N 44°42' E 021°37'3 5.7
2017-Dec-28 07:00N 44°45' E 021°36'3 6.4
2017-Dec-28 06:30N 44°46' E 021°31'0 0.7
2017-Dec-28 05:49N 44°46' E 021°31'0 0.0
2017-Dec-28 05:04N 44°46' E 021°31'0 0.0
2017-Dec-28 04:49N 44°46' E 021°31'0 0.0
2017-Dec-28 04:28N 44°46' E 021°31'0 0.0
2017-Dec-28 03:52N 44°46' E 021°31'0 0.0
2017-Dec-28 03:19N 44°46' E 021°31'0 0.0
2017-Dec-28 02:58N 44°46' E 021°31'0 0.0
2017-Dec-28 02:25N 44°46' E 021°31'0 0.0
2017-Dec-28 01:58N 44°46' E 021°31'0 0.0
2017-Dec-28 01:25N 44°46' E 021°31'0 0.0
2017-Dec-28 00:55N 44°46' E 021°31'0 0.0
2017-Dec-28 00:28N 44°46' E 021°31'0 0.0
2017-Dec-27 23:58N 44°46' E 021°31'0 0.0
2017-Dec-27 23:30N 44°46' E 021°31'0 0.5
2017-Dec-27 22:57N 44°46' E 021°31'0 0.0
2017-Dec-27 22:30N 44°46' E 021°31'0 0.0
2017-Dec-27 22:01N 44°46' E 021°31'0 0.0
2017-Dec-27 21:31N 44°46' E 021°31'0 0.5
2017-Dec-27 21:01N 44°46' E 021°31'2 3.5
2017-Dec-27 20:30N 44°47' E 021°28'9 5.2
2017-Dec-27 18:49N 44°48' E 021°16'2 6.6
2017-Dec-27 18:31N 44°47' E 021°14'4 7.2
2017-Dec-27 18:01N 44°45' E 021°10'4 7.1
2017-Dec-27 17:31N 44°43' E 021°05'4 7.9
2017-Dec-27 17:01N 44°43' E 020°60'2 3.6
2017-Dec-27 16:31N 44°42' E 020°58'0 0.2
2017-Dec-27 16:01N 44°42' E 020°58'0 0.2
2017-Dec-27 15:31N 44°42' E 020°57'2 4.7
2017-Dec-27 15:00N 44°40' E 020°55'0 0.0
2017-Dec-27 14:28N 44°40' E 020°55'0 0.0
2017-Dec-27 13:59N 44°40' E 020°55'0 0.0
2017-Dec-27 13:31N 44°40' E 020°55'0 0.0
2017-Dec-27 13:01N 44°40' E 020°55'0 0.4
2017-Dec-27 12:31N 44°40' E 020°55'0 0.0
2017-Dec-27 12:01N 44°40' E 020°55'0 0.0
2017-Dec-27 00:24N 44°40' E 020°56'0 0.8
2017-Dec-27 00:00N 44°40' E 020°55'0 0.0
2017-Dec-26 23:30N 44°40' E 020°55'0 0.0
2017-Dec-26 23:00N 44°40' E 020°55'0 0.0
2017-Dec-26 22:30N 44°40' E 020°55'0 0.0
2017-Dec-26 22:00N 44°40' E 020°55'0 0.0
2017-Dec-26 21:30N 44°40' E 020°55'0 0.0
2017-Dec-26 21:00N 44°40' E 020°55'0 0.0
2017-Dec-26 20:30N 44°40' E 020°55'0 0.0
2017-Dec-26 20:00N 44°40' E 020°55'0 0.0
2017-Dec-26 19:30N 44°40' E 020°55'0 0.0
2017-Dec-26 19:00N 44°40' E 020°55'0 0.0
2017-Dec-26 18:30N 44°40' E 020°55'0 0.0
2017-Dec-26 18:00N 44°40' E 020°55'0 0.0
2017-Dec-26 17:30N 44°40' E 020°55'0 0.0
2017-Dec-26 17:00N 44°40' E 020°55'2 4.8
2017-Dec-26 16:31N 44°42' E 020°58'0 0.0
2017-Dec-26 16:00N 44°42' E 020°58'0 0.0
2017-Dec-26 15:30N 44°42' E 020°58'0 0.0
2017-Dec-26 15:01N 44°42' E 020°58'0 0.0
2017-Dec-26 14:30N 44°42' E 020°58'0 0.0
2017-Dec-26 14:00N 44°42' E 020°58'0 0.0
2017-Dec-26 13:30N 44°42' E 020°58'0 0.0
2017-Dec-26 13:01N 44°42' E 020°58'0 0.0
2017-Dec-26 12:26N 44°42' E 020°58'0 0.0
2017-Dec-26 12:00N 44°42' E 020°58'0 0.0
2017-Dec-26 11:30N 44°42' E 020°58'0 0.0
2017-Dec-26 11:00N 44°42' E 020°58'0 0.3
2017-Dec-26 10:30N 44°42' E 020°58'0 0.1
2017-Dec-26 08:55N 44°42' E 020°58'0 0.0
2017-Dec-25 23:37N 44°42' E 020°58'0 0.1
2017-Dec-25 23:30N 44°42' E 020°58'1 1.4
2017-Dec-25 23:00N 44°42' E 020°59'0 0.8
2017-Dec-25 22:30N 44°43' E 020°59'2 3.1
2017-Dec-25 21:59N 44°43' E 021°01'1 3.0
2017-Dec-25 21:31N 44°43' E 021°03'2 3.3
2017-Dec-25 21:00N 44°43' E 021°05'2 3.2
2017-Dec-25 20:27N 44°44' E 021°08'4 3.1
2017-Dec-25 19:15N 44°46' E 021°12'1 3.3
2017-Dec-25 19:00N 44°47' E 021°13'2 2.9
2017-Dec-25 18:27N 44°48' E 021°15'2 3.8
2017-Dec-25 17:56N 44°48' E 021°17'2 3.7
2017-Dec-25 17:16N 44°49' E 021°21'2 3.6
2017-Dec-25 16:41N 44°48' E 021°23'1 3.7
2017-Dec-25 16:29N 44°47' E 021°23'1 2.9
2017-Dec-25 16:00N 44°46' E 021°25'26 1.4
2017-Dec-24 21:25N 44°38' E 021°59'2 2.6
2017-Dec-24 20:41N 44°36' E 022°01'1 2.7
2017-Dec-24 20:29N 44°36' E 022°01'1 3.0
2017-Dec-24 20:00N 44°35' E 022°02'2 3.2
2017-Dec-24 19:30N 44°33' E 022°02'2 3.6
2017-Dec-24 19:00N 44°32' E 022°04'2 3.4
2017-Dec-24 18:30N 44°30' E 022°05'2 3.7
2017-Dec-24 18:00N 44°29' E 022°07'2 3.8
2017-Dec-24 17:31N 44°28' E 022°09'2 3.6
2017-Dec-24 17:00N 44°29' E 022°11'4 4.1
2017-Dec-24 16:04N 44°33' E 022°14'0 4.0
2017-Dec-24 15:59N 44°33' E 022°14'7 3.3
2017-Dec-24 13:45N 44°40' E 022°19'1 3.2
2017-Dec-24 13:31N 44°40' E 022°20'2 4.4
2017-Dec-24 13:00N 44°41' E 022°23'2 4.3
2017-Dec-24 12:31N 44°42' E 022°25'2 4.2
2017-Dec-24 12:00N 44°43' E 022°28'2 4.3
2017-Dec-24 11:30N 44°41' E 022°30'1 2.7
2017-Dec-24 11:00N 44°40' E 022°31'0 0.1
2017-Dec-24 10:30N 44°40' E 022°32'0 0.3
2017-Dec-24 10:01N 44°40' E 022°32'0 0.2
2017-Dec-24 09:31N 44°40' E 022°32'1 2.0
2017-Dec-24 09:01N 44°39' E 022°33'1 2.6
2017-Dec-24 08:30N 44°38' E 022°34'1 2.3
2017-Dec-24 08:01N 44°38' E 022°35'1 2.7
2017-Dec-24 07:31N 44°37' E 022°37'1 2.6
2017-Dec-24 07:01N 44°37' E 022°39'2 3.2
2017-Dec-24 06:31N 44°37' E 022°41'2 3.3
2017-Dec-24 06:01N 44°36' E 022°43'2 3.5
2017-Dec-24 05:30N 44°34' E 022°45'2 3.5
2017-Dec-24 05:00N 44°33' E 022°46'2 3.3
2017-Dec-24 04:31N 44°32' E 022°44'2 3.7
2017-Dec-24 04:01N 44°31' E 022°42'2 4.1
2017-Dec-24 03:31N 44°32' E 022°39'2 4.0
2017-Dec-24 03:01N 44°33' E 022°37'2 3.5
2017-Dec-24 02:31N 44°33' E 022°34'2 3.4
2017-Dec-24 02:01N 44°31' E 022°34'2 3.8
2017-Dec-24 01:31N 44°29' E 022°33'2 3.7
2017-Dec-24 01:01N 44°28' E 022°31'2 3.5
2017-Dec-24 00:31N 44°29' E 022°28'1 2.4
2017-Dec-24 00:01N 44°28' E 022°28'2 3.2
2017-Dec-23 23:30N 44°26' E 022°29'2 3.6
2017-Dec-23 23:01N 44°25' E 022°30'2 3.4
2017-Dec-23 22:30N 44°23' E 022°30'2 3.5
2017-Dec-23 22:01N 44°21' E 022°31'2 3.5
2017-Dec-23 21:31N 44°20' E 022°32'1 3.0
2017-Dec-23 21:01N 44°19' E 022°34'0 0.4
2017-Dec-23 20:30N 44°19' E 022°34'2 3.5
2017-Dec-23 20:01N 44°18' E 022°36'1 2.6
2017-Dec-23 19:31N 44°18' E 022°38'1 2.7
2017-Dec-23 19:01N 44°17' E 022°40'1 2.4
2017-Dec-23 18:31N 44°16' E 022°41'1 2.5
2017-Dec-23 18:01N 44°15' E 022°41'1 2.4
2017-Dec-23 17:31N 44°14' E 022°41'1 1.9
2017-Dec-23 17:00N 44°13' E 022°41'1 1.6
2017-Dec-23 16:31N 44°12' E 022°41'1 2.4
2017-Dec-23 16:00N 44°12' E 022°43'1 2.4
2017-Dec-23 15:31N 44°12' E 022°44'1 2.3
2017-Dec-23 15:01N 44°11' E 022°46'1 2.3
2017-Dec-23 14:30N 44°10' E 022°47'1 2.5
2017-Dec-23 14:01N 44°10' E 022°48'1 2.4
2017-Dec-23 13:31N 44°09' E 022°50'1 2.7
2017-Dec-23 13:01N 44°08' E 022°51'1 2.4
2017-Dec-23 12:31N 44°08' E 022°53'1 2.9
2017-Dec-23 12:00N 44°06' E 022°54'1 2.4
2017-Dec-23 11:30N 44°06' E 022°56'1 2.3
2017-Dec-23 11:01N 44°06' E 022°57'1 2.6
2017-Dec-23 10:30N 44°06' E 022°59'1 2.9
2017-Dec-23 10:00N 44°05' E 023°01'1 2.8
2017-Dec-23 09:30N 44°04' E 023°03'1 2.8
2017-Dec-23 09:01N 44°03' E 023°02'1 2.6
2017-Dec-23 08:31N 44°02' E 023°02'1 2.9
2017-Dec-23 08:01N 44°01' E 023°01'1 3.0
2017-Dec-23 07:31N 44°00' E 022°59'2 3.0
2017-Dec-23 07:00N 44°00' E 022°57'1 2.7
2017-Dec-23 06:31N 43°60' E 022°55'1 2.8
2017-Dec-23 06:01N 43°59' E 022°53'1 2.7
2017-Dec-23 05:27N 43°58' E 022°52'1 3.0
2017-Dec-23 05:00N 43°56' E 022°52'2 3.1
2017-Dec-23 04:31N 43°55' E 022°51'1 1.8
2017-Dec-23 04:00N 43°54' E 022°51'1 1.6
2017-Dec-23 03:31N 43°53' E 022°50'1 2.9
2017-Dec-23 03:00N 43°52' E 022°51'1 2.8
2017-Dec-23 02:30N 43°51' E 022°52'1 2.5
2017-Dec-23 02:00N 43°50' E 022°53'11 2.8
2017-Dec-22 22:15N 43°48' E 023°07'7 2.5
2017-Dec-22 19:39N 43°51' E 023°16'0 3.2
2017-Dec-22 19:30N 43°51' E 023°16'  

Dump ship's entire track history